Time;durP1;ratioP1;P1;durP2;ratioP2;P2;SDS_P1;SDS_P2;PMS_P1;PMS_P2;Temp;Humidity;BMP_temperature;BMP_pressure;BME280_temperature;BME280_humidity;BME280_pressure;Samples;Min_cycle;Max_cycle;Signal;HPM_P1;HPM_P2
2020/12/11 00:02:00;;;;;;;;;;;22.00;39.40;;;;;;1542605;75;733;-56
2020/12/11 00:04:02;;;;;;;;;;;22.00;39.40;;;;;;1542836;75;796;-58
2020/12/11 00:06:04;;;;;;;;;;;22.00;39.30;;;;;;1526701;75;771;-56
2020/12/11 00:08:07;;;;;;;;;;;22.00;39.40;;;;;;1525703;75;688;-58
2020/12/11 00:10:10;;;;;;;;;;;21.90;39.30;;;;;;1542779;75;1185;-56
2020/12/11 00:12:12;;;;;;;;;;;22.00;39.30;;;;;;1541752;75;674;-58
2020/12/11 00:14:15;;;;;;;;;;;21.90;39.30;;;;;;1537476;75;620;-56
2020/12/11 00:16:17;;;;;;;;;;;22.00;39.30;;;;;;1542116;75;688;-56
2020/12/11 00:18:19;;;;;;;;;;;22.00;39.30;;;;;;1541739;75;713;-56
2020/12/11 00:20:21;;;;;;;;;;;22.00;39.40;;;;;;1538141;75;1939;-56
2020/12/11 00:22:23;;;;;;;;;;;22.00;39.30;;;;;;1525400;75;707;-56
2020/12/11 00:24:25;;;;;;;;;;;22.00;39.30;;;;;;1530330;75;684;-58
2020/12/11 00:26:27;;;;;;;;;;;22.00;39.40;;;;;;1519852;75;698;-57
2020/12/11 00:28:29;;;;;;;;;;;22.00;39.40;;;;;;1520718;75;784;-57
2020/12/11 00:30:31;;;;;;;;;;;21.90;39.40;;;;;;1517804;75;1161;-58
2020/12/11 00:32:34;;;;;;;;;;;22.00;39.40;;;;;;1517365;75;789;-56
2020/12/11 00:34:36;;;;;;;;;;;22.00;39.40;;;;;;1517590;76;799;-57
2020/12/11 00:36:40;;;;;;;;;;;22.00;39.40;;;;;;1520987;75;693;-57
2020/12/11 00:38:42;;;;;;;;;;;22.00;39.40;;;;;;1520217;75;946;-57
2020/12/11 00:40:43;;;;;;;;;;;21.90;39.40;;;;;;1519383;75;1942;-57
2020/12/11 00:42:45;;;;;;;;;;;21.90;39.40;;;;;;1519307;75;719;-57
2020/12/11 00:44:47;;;;;;;;;;;21.90;39.40;;;;;;1521930;75;732;-56
2020/12/11 00:46:50;;;;;;;;;;;22.00;39.40;;;;;;1518295;75;685;-58
2020/12/11 00:48:52;;;;;;;;;;;22.00;39.50;;;;;;1524311;75;684;-57
2020/12/11 00:50:54;;;;;;;;;;;22.00;39.40;;;;;;1517404;75;1156;-57
2020/12/11 00:52:56;;;;;;;;;;;22.00;39.40;;;;;;1520548;75;729;-58
2020/12/11 00:54:57;;;;;;;;;;;22.00;39.40;;;;;;1532682;75;645;-58
2020/12/11 00:56:59;;;;;;;;;;;22.00;39.50;;;;;;1528508;75;711;-58
2020/12/11 00:59:01;;;;;;;;;;;21.90;39.40;;;;;;1524733;75;711;-58
2020/12/11 01:01:03;;;;;;;;;;;22.00;39.50;;;;;;1518539;75;1953;-59
2020/12/11 01:03:05;;;;;;;;;;;22.00;39.50;;;;;;1526865;75;749;-58
2020/12/11 01:05:07;;;;;;;;;;;22.00;39.50;;;;;;1524151;75;742;-55
2020/12/11 01:07:09;;;;;;;;;;;21.90;39.50;;;;;;1522431;75;758;-56
2020/12/11 01:09:11;;;;;;;;;;;21.90;39.60;;;;;;1517747;75;692;-56
2020/12/11 01:11:12;;;;;;;;;;;22.00;39.60;;;;;;1517366;75;1161;-57
2020/12/11 01:13:14;;;;;;;;;;;22.00;39.70;;;;;;1525811;75;703;-57
2020/12/11 01:15:16;;;;;;;;;;;21.90;39.80;;;;;;1523081;75;707;-56
2020/12/11 01:17:18;;;;;;;;;;;22.00;39.80;;;;;;1518541;75;681;-56
2020/12/11 01:19:20;;;;;;;;;;;22.00;39.80;;;;;;1517994;75;726;-57
2020/12/11 01:21:22;;;;;;;;;;;21.90;39.80;;;;;;1533738;75;1951;-57
2020/12/11 01:23:24;;;;;;;;;;;21.90;39.90;;;;;;1526064;75;709;-58
2020/12/11 01:25:25;;;;;;;;;;;22.00;39.90;;;;;;1542572;75;921;-58
2020/12/11 01:27:27;;;;;;;;;;;22.00;39.80;;;;;;1542458;75;801;-58
2020/12/11 01:29:29;;;;;;;;;;;21.90;39.90;;;;;;1542572;75;670;-57
2020/12/11 01:31:31;;;;;;;;;;;22.00;39.90;;;;;;1542674;75;732;-58
2020/12/11 01:33:33;;;;;;;;;;;21.90;39.90;;;;;;1522447;75;795;-57
2020/12/11 01:35:35;;;;;;;;;;;22.00;39.90;;;;;;1542333;75;744;-57
2020/12/11 01:37:37;;;;;;;;;;;22.00;39.90;;;;;;1542506;75;765;-57
2020/12/11 01:39:38;;;;;;;;;;;21.90;40.00;;;;;;1542604;75;1083;-57
2020/12/11 01:41:40;;;;;;;;;;;21.90;40.00;;;;;;1528285;75;1937;-56
2020/12/11 01:43:42;;;;;;;;;;;22.00;40.00;;;;;;1537534;75;1064;-58
2020/12/11 01:45:44;;;;;;;;;;;22.00;40.00;;;;;;1542943;75;723;-57
2020/12/11 01:47:46;;;;;;;;;;;22.00;40.00;;;;;;1542627;75;705;-58
2020/12/11 01:49:48;;;;;;;;;;;22.00;40.00;;;;;;1538877;75;1136;-58
2020/12/11 01:51:53;;;;;;;;;;;22.00;40.00;;;;;;1542553;75;670;-57
2020/12/11 01:53:55;;;;;;;;;;;22.00;40.00;;;;;;1542727;75;754;-57
2020/12/11 01:55:57;;;;;;;;;;;21.90;40.00;;;;;;1542536;75;794;-58
2020/12/11 01:58:03;;;;;;;;;;;21.90;40.00;;;;;;1535006;75;752;-56
2020/12/11 02:00:05;;;;;;;;;;;22.00;40.00;;;;;;1536450;75;1170;-57
2020/12/11 02:02:07;;;;;;;;;;;22.00;40.10;;;;;;1534162;75;1897;-57
2020/12/11 02:04:09;;;;;;;;;;;22.00;40.10;;;;;;1542766;75;682;-57
2020/12/11 02:06:11;;;;;;;;;;;21.90;40.10;;;;;;1522693;75;690;-55
2020/12/11 02:08:13;;;;;;;;;;;21.90;40.10;;;;;;1531993;75;696;-56
2020/12/11 02:10:15;;;;;;;;;;;21.90;40.10;;;;;;1548069;75;1218;-56
2020/12/11 02:12:17;;;;;;;;;;;22.00;40.10;;;;;;1548010;75;722;-57
2020/12/11 02:14:19;;;;;;;;;;;21.90;40.10;;;;;;1533954;75;719;-55
2020/12/11 02:16:21;;;;;;;;;;;22.00;40.30;;;;;;1521130;75;701;-55
2020/12/11 02:18:23;;;;;;;;;;;21.90;40.20;;;;;;1520614;75;710;-57
2020/12/11 02:20:25;;;;;;;;;;;21.90;40.30;;;;;;1519945;75;1133;-57
2020/12/11 02:22:27;;;;;;;;;;;21.90;40.20;;;;;;1521085;75;1948;-56
2020/12/11 02:24:29;;;;;;;;;;;21.90;40.40;;;;;;1520761;76;741;-57
2020/12/11 02:26:31;;;;;;;;;;;21.90;40.50;;;;;;1521872;75;686;-58
2020/12/11 02:28:33;;;;;;;;;;;21.90;40.50;;;;;;1521811;75;763;-57
2020/12/11 02:30:35;;;;;;;;;;;21.90;40.50;;;;;;1518596;75;1204;-57
2020/12/11 02:32:36;;;;;;;;;;;22.00;40.50;;;;;;1518331;75;694;-58
2020/12/11 02:34:38;;;;;;;;;;;22.00;40.50;;;;;;1525900;75;705;-57
2020/12/11 02:36:40;;;;;;;;;;;21.90;40.50;;;;;;1517977;75;735;-56
2020/12/11 02:38:42;;;;;;;;;;;22.00;40.50;;;;;;1523206;75;1091;-55
2020/12/11 02:40:46;;;;;;;;;;;21.90;40.50;;;;;;1543011;75;1127;-56
2020/12/11 02:42:47;;;;;;;;;;;21.90;40.50;;;;;;1542609;75;1776;-57
2020/12/11 02:44:49;;;;;;;;;;;21.90;40.40;;;;;;1542909;75;723;-57
2020/12/11 02:46:51;;;;;;;;;;;22.00;40.30;;;;;;1542735;75;765;-57
2020/12/11 02:48:53;;;;;;;;;;;22.00;40.20;;;;;;1541188;75;692;-57
2020/12/11 02:50:55;;;;;;;;;;;21.90;40.20;;;;;;1543003;75;1138;-56
2020/12/11 02:52:57;;;;;;;;;;;21.90;40.20;;;;;;1542103;75;669;-57
2020/12/11 02:54:59;;;;;;;;;;;21.90;40.10;;;;;;1539720;75;705;-57
2020/12/11 02:57:01;;;;;;;;;;;21.90;40.20;;;;;;1520873;75;740;-57
2020/12/11 02:59:02;;;;;;;;;;;22.00;40.10;;;;;;1539699;75;703;-57
2020/12/11 03:01:04;;;;;;;;;;;22.00;40.20;;;;;;1542950;75;1943;-57
2020/12/11 03:03:06;;;;;;;;;;;21.90;40.10;;;;;;1542997;75;725;-56
2020/12/11 03:05:08;;;;;;;;;;;22.00;40.20;;;;;;1521947;75;712;-57
2020/12/11 03:07:10;;;;;;;;;;;22.00;40.20;;;;;;1534925;75;674;-57
2020/12/11 03:09:12;;;;;;;;;;;22.00;40.20;;;;;;1542800;75;704;-58
2020/12/11 03:11:14;;;;;;;;;;;22.00;40.20;;;;;;1543100;75;1122;-58
2020/12/11 03:13:15;;;;;;;;;;;22.00;40.20;;;;;;1534411;75;723;-58
2020/12/11 03:15:17;;;;;;;;;;;22.00;40.10;;;;;;1533923;75;688;-57
2020/12/11 03:17:19;;;;;;;;;;;21.90;40.10;;;;;;1534342;75;714;-56
2020/12/11 03:19:21;;;;;;;;;;;22.00;40.10;;;;;;1542920;75;903;-57
2020/12/11 03:21:23;;;;;;;;;;;22.00;40.00;;;;;;1566101;75;1954;-57
2020/12/11 03:23:25;;;;;;;;;;;22.00;40.10;;;;;;1542985;75;741;-57
2020/12/11 03:25:27;;;;;;;;;;;21.90;40.10;;;;;;1541152;75;732;-57
2020/12/11 03:27:28;;;;;;;;;;;22.00;40.10;;;;;;1542114;75;748;-57
2020/12/11 03:29:30;;;;;;;;;;;22.00;40.00;;;;;;1542769;75;707;-56
2020/12/11 03:31:32;;;;;;;;;;;21.90;40.10;;;;;;1542792;75;749;-57
2020/12/11 03:33:34;;;;;;;;;;;22.00;40.20;;;;;;1538844;75;763;-57
2020/12/11 03:35:36;;;;;;;;;;;22.00;40.20;;;;;;1539486;75;689;-57
2020/12/11 03:37:38;;;;;;;;;;;22.00;40.20;;;;;;1544958;75;679;-57
2020/12/11 03:39:40;;;;;;;;;;;21.90;40.30;;;;;;1542976;75;1195;-56
2020/12/11 03:41:43;;;;;;;;;;;21.90;40.40;;;;;;1542719;75;1922;-56
2020/12/11 03:43:45;;;;;;;;;;;22.00;40.40;;;;;;1533252;75;735;-57
2020/12/11 03:45:47;;;;;;;;;;;21.90;40.50;;;;;;1542992;75;684;-56
2020/12/11 03:47:48;;;;;;;;;;;22.00;40.50;;;;;;1542676;75;743;-57
2020/12/11 03:49:50;;;;;;;;;;;22.00;40.50;;;;;;1542876;75;1160;-56
2020/12/11 03:51:53;;;;;;;;;;;22.00;40.50;;;;;;1534158;75;707;-56
2020/12/11 03:53:55;;;;;;;;;;;22.00;40.50;;;;;;1533772;76;730;-57
2020/12/11 03:55:57;;;;;;;;;;;22.00;40.50;;;;;;1542797;75;767;-56
2020/12/11 03:57:59;;;;;;;;;;;22.00;40.60;;;;;;1542495;75;632;-56
2020/12/11 04:00:00;;;;;;;;;;;22.00;40.70;;;;;;1542504;75;1186;-56
2020/12/11 04:02:02;;;;;;;;;;;22.00;40.70;;;;;;1536092;75;1930;-56
2020/12/11 04:04:04;;;;;;;;;;;21.90;40.80;;;;;;1542765;75;667;-57
2020/12/11 04:06:09;;;;;;;;;;;22.00;40.80;;;;;;1542757;75;719;-55
2020/12/11 04:08:11;;;;;;;;;;;22.00;40.80;;;;;;1542570;75;676;-56
2020/12/11 04:10:13;;;;;;;;;;;22.00;40.80;;;;;;1541839;75;1127;-56
2020/12/11 04:12:15;;;;;;;;;;;22.00;40.80;;;;;;1537556;75;775;-57
2020/12/11 04:14:17;;;;;;;;;;;22.00;40.90;;;;;;1542769;75;695;-57
2020/12/11 04:16:19;;;;;;;;;;;22.00;40.90;;;;;;1551758;75;689;-56
2020/12/11 04:18:21;;;;;;;;;;;21.90;40.90;;;;;;1546075;74;793;-56
2020/12/11 04:20:22;;;;;;;;;;;22.00;40.90;;;;;;1540948;75;1135;-56
2020/12/11 04:22:25;;;;;;;;;;;22.00;40.90;;;;;;1542790;75;1943;-56
2020/12/11 04:24:27;;;;;;;;;;;22.00;41.00;;;;;;1542717;75;716;-56
2020/12/11 04:26:29;;;;;;;;;;;22.00;40.90;;;;;;1542753;75;789;-58
2020/12/11 04:28:31;;;;;;;;;;;22.00;40.90;;;;;;1538756;75;800;-57
2020/12/11 04:30:32;;;;;;;;;;;22.00;40.90;;;;;;1541197;75;1182;-56
2020/12/11 04:32:34;;;;;;;;;;;22.10;41.10;;;;;;1559830;75;660;-57
2020/12/11 04:34:36;;;;;;;;;;;22.20;40.90;;;;;;1552450;75;717;-57
2020/12/11 04:36:38;;;;;;;;;;;22.20;40.80;;;;;;1514685;76;725;-56
2020/12/11 04:38:40;;;;;;;;;;;22.20;40.90;;;;;;1527499;76;725;-56
2020/12/11 04:40:42;;;;;;;;;;;22.10;41.00;;;;;;1529040;76;1175;-55
2020/12/11 04:42:47;;;;;;;;;;;22.20;40.90;;;;;;1529142;76;1930;-56
2020/12/11 04:44:49;;;;;;;;;;;22.20;40.90;;;;;;1514912;76;704;-57
2020/12/11 04:46:50;;;;;;;;;;;22.20;40.80;;;;;;1510453;76;686;-58
2020/12/11 04:48:53;;;;;;;;;;;22.30;40.90;;;;;;1517861;76;748;-56
2020/12/11 04:50:55;;;;;;;;;;;22.20;40.70;;;;;;1564040;75;1117;-56
2020/12/11 04:52:57;;;;;;;;;;;22.20;40.60;;;;;;1529224;76;709;-57
2020/12/11 04:54:59;;;;;;;;;;;22.30;40.70;;;;;;1528992;76;797;-56
2020/12/11 04:57:01;;;;;;;;;;;22.20;40.50;;;;;;1529006;76;733;-57
2020/12/11 04:59:03;;;;;;;;;;;22.30;40.50;;;;;;1514960;76;798;-56
2020/12/11 05:01:05;;;;;;;;;;;22.30;40.50;;;;;;1544445;75;1253;-56
2020/12/11 05:03:08;;;;;;;;;;;22.30;40.50;;;;;;1528668;77;1956;-57
2020/12/11 05:05:10;;;;;;;;;;;22.30;40.40;;;;;;1528821;77;750;-55
2020/12/11 05:07:12;;;;;;;;;;;22.30;40.40;;;;;;1518356;77;765;-56
2020/12/11 05:09:20;;;;;;;;;;;22.30;40.40;;;;;;1510259;76;675;-55
2020/12/11 05:11:28;;;;;;;;;;;22.30;40.50;;;;;;1528625;76;1092;-57
2020/12/11 05:13:30;;;;;;;;;;;22.40;40.40;;;;;;1545476;75;680;-56
2020/12/11 05:15:32;;;;;;;;;;;22.30;40.30;;;;;;1544068;77;694;-56
2020/12/11 05:17:34;;;;;;;;;;;22.30;40.50;;;;;;1537419;75;661;-57
2020/12/11 05:19:49;;;;;;;;;;;22.40;40.50;;;;;;1528147;77;1175;-55
2020/12/11 05:21:51;;;;;;;;;;;22.30;40.50;;;;;;1529032;76;1914;-57
2020/12/11 05:23:58;;;;;;;;;;;22.30;40.50;;;;;;1529122;76;782;-57
2020/12/11 05:26:00;;;;;;;;;;;22.30;40.50;;;;;;1519005;76;835;-56
2020/12/11 05:28:01;;;;;;;;;;;22.30;40.50;;;;;;1491589;77;866;-56
2020/12/11 05:30:14;;;;;;;;;;;22.30;40.60;;;;;;1562727;74;1157;-58
2020/12/11 05:32:16;;;;;;;;;;;22.30;40.50;;;;;;1551989;74;707;-57
2020/12/11 05:34:18;;;;;;;;;;;22.30;40.50;;;;;;1551391;74;722;-58
2020/12/11 05:36:20;;;;;;;;;;;22.40;40.50;;;;;;1551694;74;720;-58
2020/12/11 05:38:21;;;;;;;;;;;22.30;40.40;;;;;;1550471;74;699;-58
2020/12/11 05:40:25;;;;;;;;;;;22.30;40.40;;;;;;1554244;74;1162;-57
2020/12/11 05:42:27;;;;;;;;;;;22.30;40.40;;;;;;1556692;74;1990;-57
2020/12/11 05:44:29;;;;;;;;;;;22.40;40.40;;;;;;1557470;74;664;-58
2020/12/11 05:46:31;;;;;;;;;;;22.40;40.40;;;;;;1553449;74;765;-57
2020/12/11 05:48:35;;;;;;;;;;;22.40;40.30;;;;;;1553605;74;876;-57
2020/12/11 05:50:37;;;;;;;;;;;22.40;40.40;;;;;;1555279;74;1163;-57
2020/12/11 05:52:38;;;;;;;;;;;22.30;40.50;;;;;;1576578;74;717;-58
2020/12/11 05:54:42;;;;;;;;;;;22.40;40.40;;;;;;1570546;74;717;-58
2020/12/11 05:56:44;;;;;;;;;;;22.40;40.40;;;;;;1572723;74;1733;-58
2020/12/11 05:58:46;;;;;;;;;;;22.40;40.40;;;;;;1577963;74;702;-58
2020/12/11 06:00:48;;;;;;;;;;;22.40;40.40;;;;;;1587655;74;1167;-58
2020/12/11 06:02:50;;;;;;;;;;;22.40;40.40;;;;;;1576484;74;1929;-58
2020/12/11 06:04:52;;;;;;;;;;;22.40;40.50;;;;;;1568128;74;699;-58
2020/12/11 06:06:56;;;;;;;;;;;22.40;40.50;;;;;;1576360;74;893;-57
2020/12/11 06:08:58;;;;;;;;;;;22.40;40.50;;;;;;1576212;74;698;-58
2020/12/11 06:10:59;;;;;;;;;;;22.40;40.50;;;;;;1576454;74;1110;-58
2020/12/11 06:13:01;;;;;;;;;;;22.40;40.50;;;;;;1574811;74;664;-58
2020/12/11 06:15:04;;;;;;;;;;;22.40;40.40;;;;;;1589806;74;698;-58
2020/12/11 06:17:07;;;;;;;;;;;22.50;40.50;;;;;;1569515;74;667;-56
2020/12/11 06:19:09;;;;;;;;;;;22.50;40.50;;;;;;1576398;74;745;-57
2020/12/11 06:21:10;;;;;;;;;;;22.50;40.50;;;;;;1568943;74;1144;-56
2020/12/11 06:23:22;;;;;;;;;;;22.50;40.40;;;;;;1565328;74;1919;-58
2020/12/11 06:25:27;;;;;;;;;;;22.50;40.50;;;;;;1584454;74;672;-58
2020/12/11 06:27:32;;;;;;;;;;;22.40;40.20;;;;;;1586029;74;666;-56
2020/12/11 06:29:39;;;;;;;;;;;22.50;40.30;;;;;;1576509;74;1069;-57
2020/12/11 06:31:47;;;;;;;;;;;22.40;40.10;;;;;;1558561;74;1612;-59
2020/12/11 06:33:50;;;;;;;;;;;22.50;40.40;;;;;;1576575;74;761;-58
2020/12/11 06:35:58;;;;;;;;;;;22.50;40.50;;;;;;1576547;74;704;-57
2020/12/11 06:38:00;;;;;;;;;;;22.50;40.00;;;;;;1569334;74;676;-57
2020/12/11 06:40:01;;;;;;;;;;;22.50;39.70;;;;;;1584603;74;1124;-58
2020/12/11 06:42:03;;;;;;;;;;;22.50;39.40;;;;;;1574970;74;722;-58
2020/12/11 06:44:12;;;;;;;;;;;22.60;39.00;;;;;;1576507;74;1966;-58
2020/12/11 06:46:21;;;;;;;;;;;22.60;39.00;;;;;;1576543;74;736;-57
2020/12/11 06:48:23;;;;;;;;;;;22.50;38.80;;;;;;1576293;74;748;-57
2020/12/11 06:50:26;;;;;;;;;;;22.50;38.90;;;;;;1569294;74;1137;-57
2020/12/11 06:52:30;;;;;;;;;;;22.50;38.90;;;;;;1576606;74;758;-57
2020/12/11 06:54:33;;;;;;;;;;;22.50;39.00;;;;;;1576250;74;1877;-58
2020/12/11 06:56:43;;;;;;;;;;;22.50;38.70;;;;;;1567876;74;789;-59
2020/12/11 06:58:44;;;;;;;;;;;22.50;38.60;;;;;;1562474;74;702;-59
2020/12/11 07:00:48;;;;;;;;;;;22.60;38.50;;;;;;1566876;74;1161;-58
2020/12/11 07:03:08;;;;;;;;;;;22.50;38.40;;;;;;1572758;74;1941;-57
2020/12/11 07:05:10;;;;;;;;;;;22.50;38.30;;;;;;1576447;74;710;-58
2020/12/11 07:07:12;;;;;;;;;;;22.60;38.10;;;;;;1567525;74;779;-59
2020/12/11 07:09:14;;;;;;;;;;;22.50;38.10;;;;;;1574977;74;760;-57
2020/12/11 07:11:16;;;;;;;;;;;22.60;37.20;;;;;;1575801;74;1133;-59
2020/12/11 07:13:18;;;;;;;;;;;22.50;37.20;;;;;;1582785;74;723;-60
2020/12/11 07:15:20;;;;;;;;;;;22.60;36.60;;;;;;1565257;73;715;-58
2020/12/11 07:17:28;;;;;;;;;;;22.50;35.80;;;;;;1576251;74;729;-58
2020/12/11 07:19:34;;;;;;;;;;;22.50;35.30;;;;;;1573524;74;678;-58
2020/12/11 07:21:41;;;;;;;;;;;22.50;35.00;;;;;;1553846;74;1007;-59
2020/12/11 07:23:40;;;;;;;;;;;22.50;34.70;;;;;;1575780;74;1910;-59
2020/12/11 07:25:42;;;;;;;;;;;22.40;34.30;;;;;;1576675;74;771;-58
2020/12/11 07:27:45;;;;;;;;;;;22.40;33.90;;;;;;1561214;74;687;-58
2020/12/11 07:29:50;;;;;;;;;;;22.40;33.60;;;;;;1570875;74;1742;-58
2020/12/11 07:31:52;;;;;;;;;;;22.30;33.40;;;;;;1576569;74;711;-59
2020/12/11 07:33:54;;;;;;;;;;;22.30;33.10;;;;;;1588719;74;800;-58
2020/12/11 07:35:57;;;;;;;;;;;22.30;32.80;;;;;;1575485;74;701;-57
2020/12/11 07:37:59;;;;;;;;;;;22.20;32.00;;;;;;1557817;74;1900;-61
2020/12/11 07:40:02;;;;;;;;;;;22.20;31.90;;;;;;1551766;74;1115;-60
2020/12/11 07:42:05;;;;;;;;;;;22.20;31.30;;;;;;1564090;74;693;-61
2020/12/11 07:44:07;;;;;;;;;;;22.10;30.70;;;;;;1576579;74;1906;-60
2020/12/11 07:46:09;;;;;;;;;;;22.00;30.70;;;;;;1576549;74;659;-62
2020/12/11 07:48:11;;;;;;;;;;;22.00;30.70;;;;;;1570475;74;696;-60
2020/12/11 07:50:13;;;;;;;;;;;22.00;30.40;;;;;;1586210;74;1130;-60
2020/12/11 07:52:22;;;;;;;;;;;21.90;30.30;;;;;;1576596;74;649;-61
2020/12/11 07:54:20;;;;;;;;;;;21.90;30.20;;;;;;1575540;74;1601;-60
2020/12/11 07:56:23;;;;;;;;;;;21.80;30.00;;;;;;1570487;74;772;-60
2020/12/11 07:58:25;;;;;;;;;;;21.70;29.90;;;;;;1575980;73;1809;-60
2020/12/11 08:00:27;;;;;;;;;;;21.70;29.80;;;;;;1588942;74;1164;-59
2020/12/11 08:02:30;;;;;;;;;;;21.70;29.70;;;;;;1581918;74;710;-59
2020/12/11 08:04:38;;;;;;;;;;;21.70;29.30;;;;;;1574832;74;1897;-59
2020/12/11 08:06:40;;;;;;;;;;;21.60;28.00;;;;;;1574964;74;1111;-60
2020/12/11 08:08:42;;;;;;;;;;;21.50;28.40;;;;;;1569651;74;693;-60
2020/12/11 08:10:44;;;;;;;;;;;21.50;28.50;;;;;;1561428;74;1144;-60
2020/12/11 08:12:46;;;;;;;;;;;21.50;28.80;;;;;;1559397;74;673;-59
2020/12/11 08:14:48;;;;;;;;;;;21.40;28.80;;;;;;1559421;74;776;-60
2020/12/11 08:16:50;;;;;;;;;;;21.40;28.40;;;;;;1557477;74;829;-60
2020/12/11 08:18:52;;;;;;;;;;;21.40;28.00;;;;;;1557519;74;686;-60
2020/12/11 08:20:54;;;;;;;;;;;21.30;28.10;;;;;;1552694;74;1141;-60
2020/12/11 08:22:56;;;;;;;;;;;21.30;28.20;;;;;;1557489;74;1925;-61
2020/12/11 08:24:58;;;;;;;;;;;21.20;28.00;;;;;;1558773;74;551;-60
2020/12/11 08:27:00;;;;;;;;;;;21.20;27.80;;;;;;1553987;74;693;-59
2020/12/11 08:29:05;;;;;;;;;;;21.20;28.00;;;;;;1552612;74;715;-60
2020/12/11 08:31:20;;;;;;;;;;;21.20;28.00;;;;;;1560296;74;1108;-59
2020/12/11 08:33:24;;;;;;;;;;;21.10;27.90;;;;;;1556465;74;744;-61
2020/12/11 08:35:25;;;;;;;;;;;21.10;27.70;;;;;;1558143;74;724;-61
2020/12/11 08:37:27;;;;;;;;;;;21.10;27.60;;;;;;1576404;74;754;-60
2020/12/11 08:39:29;;;;;;;;;;;21.00;27.60;;;;;;1576575;74;696;-61
2020/12/11 08:41:32;;;;;;;;;;;21.00;27.50;;;;;;1576550;74;1430;-61
2020/12/11 08:43:42;;;;;;;;;;;21.00;27.30;;;;;;1565257;74;1923;-61
2020/12/11 08:45:48;;;;;;;;;;;21.00;27.20;;;;;;1575521;74;1521;-61
2020/12/11 08:48:07;;;;;;;;;;;20.90;27.00;;;;;;1575214;74;1575;-61
2020/12/11 08:52:05;;;;;;;;;;;20.90;27.20;;;;;;1572792;74;869;-61
2020/12/11 08:54:09;;;;;;;;;;;20.80;27.00;;;;;;1557896;74;686;-60
2020/12/11 08:56:11;;;;;;;;;;;20.80;27.00;;;;;;1559358;74;1603;-61
2020/12/11 08:58:13;;;;;;;;;;;20.80;26.70;;;;;;1581878;74;649;-61
2020/12/11 09:00:14;;;;;;;;;;;20.70;26.60;;;;;;1597224;74;1120;-61
2020/12/11 09:02:16;;;;;;;;;;;20.70;26.70;;;;;;1572331;74;646;-60
2020/12/11 09:04:18;;;;;;;;;;;20.70;26.70;;;;;;1588612;73;1919;-60
2020/12/11 09:06:20;;;;;;;;;;;20.60;26.20;;;;;;1576210;74;659;-60
2020/12/11 09:08:22;;;;;;;;;;;20.60;26.30;;;;;;1576415;74;762;-60
2020/12/11 09:10:24;;;;;;;;;;;20.60;26.60;;;;;;1574274;74;1133;-60
2020/12/11 09:12:26;;;;;;;;;;;20.50;26.50;;;;;;1578229;74;713;-60
2020/12/11 09:14:27;;;;;;;;;;;20.60;26.40;;;;;;1557143;74;777;-61
2020/12/11 09:16:29;;;;;;;;;;;20.50;26.50;;;;;;1576436;74;736;-60
2020/12/11 09:18:31;;;;;;;;;;;20.50;26.30;;;;;;1577711;74;732;-60
2020/12/11 09:20:33;;;;;;;;;;;20.40;26.50;;;;;;1568394;74;1105;-60
2020/12/11 09:22:35;;;;;;;;;;;20.40;26.20;;;;;;1567048;74;712;-60
2020/12/11 09:24:37;;;;;;;;;;;20.40;26.20;;;;;;1576368;74;1914;-61
2020/12/11 09:26:39;;;;;;;;;;;20.30;26.30;;;;;;1580232;74;727;-60
2020/12/11 09:28:45;;;;;;;;;;;20.40;26.50;;;;;;1592058;74;799;-60
2020/12/11 09:30:46;;;;;;;;;;;20.30;26.50;;;;;;1572955;74;1581;-60
2020/12/11 09:33:24;;;;;;;;;;;20.30;26.50;;;;;;1576529;74;680;-60
2020/12/11 09:34:57;;;;;;;;;;;20.20;25.80;;;;;;1558392;74;1529;-60
2020/12/11 09:37:00;;;;;;;;;;;20.10;25.10;;;;;;1576430;74;918;-60
2020/12/11 09:39:02;;;;;;;;;;;20.00;25.70;;;;;;1563598;74;729;-60
2020/12/11 09:41:05;;;;;;;;;;;20.00;25.70;;;;;;1576498;74;1122;-60
2020/12/11 09:45:27;;;;;;;;;;;19.90;25.90;;;;;;1576557;74;1886;-62
2020/12/11 09:50:05;;;;;;;;;;;19.90;26.80;;;;;;1583401;74;1664;-60
2020/12/11 09:52:04;;;;;;;;;;;19.80;26.50;;;;;;1575278;74;1731;-61
2020/12/11 09:56:05;;;;;;;;;;;19.80;26.80;;;;;;1576596;74;862;-61
2020/12/11 09:58:07;;;;;;;;;;;19.90;26.80;;;;;;1568704;74;765;-61
2020/12/11 10:00:09;;;;;;;;;;;19.80;26.50;;;;;;1599683;74;1183;-60
2020/12/11 10:04:31;;;;;;;;;;;19.80;26.90;;;;;;1572275;74;1906;-61
2020/12/11 10:06:33;;;;;;;;;;;19.80;27.10;;;;;;1564884;74;725;-61
2020/12/11 10:08:35;;;;;;;;;;;19.80;27.20;;;;;;1556647;74;712;-60
2020/12/11 10:10:37;;;;;;;;;;;19.80;27.30;;;;;;1554681;74;1183;-61
2020/12/11 10:12:39;;;;;;;;;;;19.80;27.30;;;;;;1583001;74;1050;-60
2020/12/11 10:14:51;;;;;;;;;;;19.80;27.40;;;;;;1583662;74;676;-61
2020/12/11 10:16:50;;;;;;;;;;;19.80;27.30;;;;;;1567534;74;1679;-61
2020/12/11 10:18:52;;;;;;;;;;;19.80;27.40;;;;;;1576137;74;1017;-61
2020/12/11 10:20:54;;;;;;;;;;;19.80;27.60;;;;;;1576374;74;1141;-59
2020/12/11 10:22:57;;;;;;;;;;;19.80;27.40;;;;;;1576384;74;688;-59
2020/12/11 10:24:59;;;;;;;;;;;19.90;27.10;;;;;;1575579;74;1890;-60
2020/12/11 10:27:01;;;;;;;;;;;19.80;26.90;;;;;;1549711;74;729;-60
2020/12/11 10:29:03;;;;;;;;;;;19.80;26.50;;;;;;1562760;74;745;-60
2020/12/11 10:31:04;;;;;;;;;;;19.70;26.50;;;;;;1597313;74;1148;-59
2020/12/11 10:33:06;;;;;;;;;;;19.80;26.50;;;;;;1581377;74;806;-58
2020/12/11 10:35:08;;;;;;;;;;;19.70;26.40;;;;;;1554887;74;728;-58
2020/12/11 10:37:15;;;;;;;;;;;19.80;26.50;;;;;;1576340;74;789;-59
2020/12/11 10:39:15;;;;;;;;;;;19.70;26.50;;;;;;1575514;74;1484;-60
2020/12/11 10:41:16;;;;;;;;;;;19.70;26.60;;;;;;1576389;74;1141;-60
2020/12/11 10:43:18;;;;;;;;;;;19.60;26.30;;;;;;1522584;75;1208;-60
2020/12/11 10:45:20;;;;;;;;;;;19.60;25.80;;;;;;1555274;74;1952;-59
2020/12/11 10:47:22;;;;;;;;;;;19.50;26.90;;;;;;1576302;74;806;-60
2020/12/11 10:49:24;;;;;;;;;;;19.50;27.70;;;;;;1576332;74;675;-60
2020/12/11 10:51:26;;;;;;;;;;;19.50;28.40;;;;;;1576156;74;1118;-59
2020/12/11 10:53:28;;;;;;;;;;;19.50;28.70;;;;;;1559627;74;676;-59
2020/12/11 10:55:30;;;;;;;;;;;19.50;29.00;;;;;;1576052;74;784;-60
2020/12/11 10:57:31;;;;;;;;;;;19.60;29.20;;;;;;1576145;74;681;-60
2020/12/11 10:59:33;;;;;;;;;;;19.60;29.30;;;;;;1576377;74;1128;-59
2020/12/11 11:01:35;;;;;;;;;;;19.70;30.00;;;;;;1576186;74;764;-59
2020/12/11 11:03:37;;;;;;;;;;;19.70;30.20;;;;;;1560567;74;677;-60
2020/12/11 11:05:40;;;;;;;;;;;19.80;31.30;;;;;;1600755;74;1906;-59
2020/12/11 11:07:42;;;;;;;;;;;19.70;31.60;;;;;;1576429;74;721;-60
2020/12/11 11:09:49;;;;;;;;;;;19.90;32.10;;;;;;1576563;74;1249;-60
2020/12/11 11:11:56;;;;;;;;;;;19.90;32.40;;;;;;1579561;74;1623;-60
2020/12/11 11:15:57;;;;;;;;;;;20.10;32.80;;;;;;1576307;74;838;-60
2020/12/11 11:18:12;;;;;;;;;;;20.20;33.00;;;;;;1576410;74;1795;-59
2020/12/11 11:22:32;;;;;;;;;;;20.30;33.30;;;;;;1564610;74;776;-59
2020/12/11 11:28:45;;;;;;;;;;;20.50;33.60;;;;;;1576417;74;816;-60
2020/12/11 11:30:47;;;;;;;;;;;20.50;33.60;;;;;;1562474;74;1145;-60
2020/12/11 11:32:51;;;;;;;;;;;20.60;33.70;;;;;;1550337;74;793;-60
2020/12/11 11:34:53;;;;;;;;;;;20.60;33.70;;;;;;1554896;74;2045;-60
2020/12/11 11:36:56;;;;;;;;;;;20.70;34.00;;;;;;1556421;74;659;-59
2020/12/11 11:38:58;;;;;;;;;;;20.70;34.00;;;;;;1552156;74;653;-60
2020/12/11 11:40:59;;;;;;;;;;;20.80;34.20;;;;;;1562154;74;1151;-60
2020/12/11 11:43:01;;;;;;;;;;;20.80;34.30;;;;;;1588015;74;716;-60
2020/12/11 11:45:05;;;;;;;;;;;20.80;34.20;;;;;;1580335;74;1930;-60
2020/12/11 11:47:10;;;;;;;;;;;20.90;34.40;;;;;;1576599;74;681;-60
2020/12/11 11:49:15;;;;;;;;;;;20.90;34.40;;;;;;1576606;74;779;-60
2020/12/11 11:51:32;;;;;;;;;;;20.90;34.40;;;;;;1574816;74;1128;-60
2020/12/11 11:53:27;;;;;;;;;;;20.90;34.40;;;;;;1574315;74;1645;-59
2020/12/11 11:55:28;;;;;;;;;;;20.90;34.60;;;;;;1576503;74;1504;-59
2020/12/11 11:57:30;;;;;;;;;;;21.00;34.70;;;;;;1576575;74;680;-59
2020/12/11 11:59:32;;;;;;;;;;;21.00;34.70;;;;;;1563247;74;1139;-59
2020/12/11 12:01:34;;;;;;;;;;;21.00;34.70;;;;;;1553062;74;669;-59
2020/12/11 12:03:36;;;;;;;;;;;21.00;34.90;;;;;;1568017;74;667;-59
2020/12/11 12:05:37;;;;;;;;;;;21.00;34.90;;;;;;1556811;74;1943;-60
2020/12/11 12:07:40;;;;;;;;;;;21.00;34.80;;;;;;1560425;74;677;-60
2020/12/11 12:09:42;;;;;;;;;;;21.10;35.10;;;;;;1561484;74;1157;-59
2020/12/11 12:11:44;;;;;;;;;;;21.10;35.10;;;;;;1571918;74;704;-59
2020/12/11 12:13:46;;;;;;;;;;;21.10;35.30;;;;;;1582025;74;693;-59
2020/12/11 12:15:50;;;;;;;;;;;21.10;35.20;;;;;;1574881;74;700;-58
2020/12/11 12:18:01;;;;;;;;;;;21.10;35.30;;;;;;1572353;74;685;-59
2020/12/11 12:20:08;;;;;;;;;;;21.10;35.20;;;;;;1574040;74;1663;-59
2020/12/11 12:30:49;;;;;;;;;;;21.20;35.70;;;;;;1581443;74;1161;-59
2020/12/11 12:35:22;;;;;;;;;;;21.20;35.80;;;;;;1494423;78;1028;-59
2020/12/11 12:43:43;;;;;;;;;;;21.20;36.00;;;;;;1585702;74;1646;-60
2020/12/11 12:45:45;;;;;;;;;;;21.20;36.20;;;;;;1591738;74;1926;-60
2020/12/11 12:47:46;;;;;;;;;;;21.20;36.10;;;;;;1563767;74;753;-60
2020/12/11 12:49:48;;;;;;;;;;;21.20;36.30;;;;;;1576662;74;1105;-60